Long Pine, Nebraska
Current Conditions -  °F | °C
As of 5:35 PM on Tuesday 25 Nov 2014 (Local Time) from KANW Reporting Station
Scattered Clouds Scattered Clouds  
Wind Chill: 28°   Ceiling: Unl
Heat Index: 37°   Visibility: 10mi
Dew Point: 25°   Wind: 13mph
Humidity: 63%   Direction: 280°W
Pressure: 29.78"   Gusts: NA
Location:  42.54°N, 99.7°W
Report Text: KANW 252335Z AUTO 28011KT 10SM SCT050 03/M04 A2978 RMK AO2 T00261038
Loading
Personal Weather Stations






























Interactive Weather Map New forecast layout! Learn more

10-Day Weather Forecast

Advertisements
Track Severe Weather on mobile